sensor_id;sensor_type;location;lat;lon;timestamp;P1;durP1;ratioP1;P2;durP2;ratioP2
75230;SDS011;63814;50.118;8.714;2022-11-25T00:00:30;21.37;;;10.83;;
75230;SDS011;63814;50.118;8.714;2022-11-25T00:02:57;19.70;;;11.27;;
75230;SDS011;63814;50.118;8.714;2022-11-25T00:05:24;21.30;;;11.83;;
75230;SDS011;63814;50.118;8.714;2022-11-25T00:07:50;19.27;;;12.23;;
75230;SDS011;63814;50.118;8.714;2022-11-25T00:10:17;22.33;;;12.60;;
75230;SDS011;63814;50.118;8.714;2022-11-25T00:12:43;23.17;;;11.67;;
75230;SDS011;63814;50.118;8.714;2022-11-25T00:15:10;21.23;;;11.67;;
75230;SDS011;63814;50.118;8.714;2022-11-25T00:17:38;22.63;;;11.60;;
75230;SDS011;63814;50.118;8.714;2022-11-25T00:20:04;27.07;;;11.57;;
75230;SDS011;63814;50.118;8.714;2022-11-25T00:22:32;20.03;;;11.40;;
75230;SDS011;63814;50.118;8.714;2022-11-25T00:24:58;22.77;;;11.37;;
75230;SDS011;63814;50.118;8.714;2022-11-25T00:27:25;18.10;;;10.93;;
75230;SDS011;63814;50.118;8.714;2022-11-25T00:29:51;20.50;;;10.20;;
75230;SDS011;63814;50.118;8.714;2022-11-25T00:32:18;17.33;;;10.07;;
75230;SDS011;63814;50.118;8.714;2022-11-25T00:34:46;19.63;;;10.77;;
75230;SDS011;63814;50.118;8.714;2022-11-25T00:37:13;17.07;;;10.50;;
75230;SDS011;63814;50.118;8.714;2022-11-25T00:39:39;18.20;;;10.73;;
75230;SDS011;63814;50.118;8.714;2022-11-25T00:42:06;18.90;;;10.10;;
75230;SDS011;63814;50.118;8.714;2022-11-25T00:44:50;18.27;;;9.40;;
75230;SDS011;63814;50.118;8.714;2022-11-25T00:47:17;19.83;;;10.00;;
75230;SDS011;63814;50.118;8.714;2022-11-25T00:49:47;20.03;;;11.03;;
75230;SDS011;63814;50.118;8.714;2022-11-25T00:52:15;19.93;;;10.03;;
75230;SDS011;63814;50.118;8.714;2022-11-25T00:54:43;17.20;;;9.90;;
75230;SDS011;63814;50.118;8.714;2022-11-25T00:57:11;16.83;;;9.63;;
75230;SDS011;63814;50.118;8.714;2022-11-25T00:59:38;16.47;;;9.80;;
75230;SDS011;63814;50.118;8.714;2022-11-25T01:02:06;17.63;;;10.20;;
75230;SDS011;63814;50.118;8.714;2022-11-25T01:04:33;20.43;;;9.97;;
75230;SDS011;63814;50.118;8.714;2022-11-25T01:07:00;17.93;;;10.47;;
75230;SDS011;63814;50.118;8.714;2022-11-25T01:09:27;20.37;;;10.37;;
75230;SDS011;63814;50.118;8.714;2022-11-25T01:11:54;17.50;;;10.53;;
75230;SDS011;63814;50.118;8.714;2022-11-25T01:14:22;18.50;;;9.87;;
75230;SDS011;63814;50.118;8.714;2022-11-25T01:16:49;18.57;;;10.50;;
75230;SDS011;63814;50.118;8.714;2022-11-25T01:19:16;20.10;;;10.43;;
75230;SDS011;63814;50.118;8.714;2022-11-25T01:21:43;20.60;;;9.90;;
75230;SDS011;63814;50.118;8.714;2022-11-25T01:24:12;19.10;;;10.13;;
75230;SDS011;63814;50.118;8.714;2022-11-25T01:26:40;15.83;;;9.63;;
75230;SDS011;63814;50.118;8.714;2022-11-25T01:29:11;15.73;;;10.00;;
75230;SDS011;63814;50.118;8.714;2022-11-25T01:31:39;21.33;;;10.47;;
75230;SDS011;63814;50.118;8.714;2022-11-25T01:34:06;19.70;;;10.20;;
75230;SDS011;63814;50.118;8.714;2022-11-25T01:36:35;17.07;;;9.87;;
75230;SDS011;63814;50.118;8.714;2022-11-25T01:39:02;17.17;;;9.03;;
75230;SDS011;63814;50.118;8.714;2022-11-25T01:41:31;18.23;;;10.03;;
75230;SDS011;63814;50.118;8.714;2022-11-25T01:44:03;18.60;;;10.30;;
75230;SDS011;63814;50.118;8.714;2022-11-25T01:46:35;20.60;;;9.47;;
75230;SDS011;63814;50.118;8.714;2022-11-25T01:49:09;17.03;;;9.27;;
75230;SDS011;63814;50.118;8.714;2022-11-25T01:51:40;17.27;;;9.60;;
75230;SDS011;63814;50.118;8.714;2022-11-25T01:54:11;17.93;;;9.67;;
75230;SDS011;63814;50.118;8.714;2022-11-25T01:56:46;21.60;;;9.53;;
75230;SDS011;63814;50.118;8.714;2022-11-25T01:59:15;15.03;;;8.50;;
75230;SDS011;63814;50.118;8.714;2022-11-25T02:01:42;20.40;;;9.87;;
75230;SDS011;63814;50.118;8.714;2022-11-25T02:04:09;17.27;;;9.53;;
75230;SDS011;63814;50.118;8.714;2022-11-25T02:06:41;22.00;;;9.43;;
75230;SDS011;63814;50.118;8.714;2022-11-25T02:09:12;18.33;;;9.47;;
75230;SDS011;63814;50.118;8.714;2022-11-25T02:11:40;22.20;;;9.37;;
75230;SDS011;63814;50.118;8.714;2022-11-25T02:14:10;18.53;;;9.90;;
75230;SDS011;63814;50.118;8.714;2022-11-25T02:16:39;14.97;;;9.23;;
75230;SDS011;63814;50.118;8.714;2022-11-25T02:19:05;19.77;;;9.43;;
75230;SDS011;63814;50.118;8.714;2022-11-25T02:21:40;17.30;;;9.23;;
75230;SDS011;63814;50.118;8.714;2022-11-25T02:24:12;15.07;;;9.00;;
75230;SDS011;63814;50.118;8.714;2022-11-25T02:26:44;16.67;;;8.90;;
75230;SDS011;63814;50.118;8.714;2022-11-25T02:29:11;15.60;;;8.80;;
75230;SDS011;63814;50.118;8.714;2022-11-25T02:31:38;14.83;;;8.70;;
75230;SDS011;63814;50.118;8.714;2022-11-25T02:34:05;17.97;;;9.23;;
75230;SDS011;63814;50.118;8.714;2022-11-25T02:36:33;16.27;;;8.90;;
75230;SDS011;63814;50.118;8.714;2022-11-25T02:39:00;15.43;;;9.73;;
75230;SDS011;63814;50.118;8.714;2022-11-25T02:41:29;20.97;;;9.70;;
75230;SDS011;63814;50.118;8.714;2022-11-25T02:43:59;18.80;;;9.10;;
75230;SDS011;63814;50.118;8.714;2022-11-25T02:46:26;16.43;;;8.17;;
75230;SDS011;63814;50.118;8.714;2022-11-25T02:48:54;17.37;;;9.03;;
75230;SDS011;63814;50.118;8.714;2022-11-25T02:51:23;17.53;;;8.97;;
75230;SDS011;63814;50.118;8.714;2022-11-25T02:53:51;19.73;;;9.87;;
75230;SDS011;63814;50.118;8.714;2022-11-25T02:56:19;18.13;;;9.77;;
75230;SDS011;63814;50.118;8.714;2022-11-25T02:58:47;20.83;;;10.10;;
75230;SDS011;63814;50.118;8.714;2022-11-25T03:01:15;15.83;;;9.10;;
75230;SDS011;63814;50.118;8.714;2022-11-25T03:03:41;18.80;;;9.80;;
75230;SDS011;63814;50.118;8.714;2022-11-25T03:06:08;15.77;;;8.83;;
75230;SDS011;63814;50.118;8.714;2022-11-25T03:08:35;15.93;;;9.30;;
75230;SDS011;63814;50.118;8.714;2022-11-25T03:11:02;16.70;;;9.27;;
75230;SDS011;63814;50.118;8.714;2022-11-25T03:13:29;16.43;;;9.13;;
75230;SDS011;63814;50.118;8.714;2022-11-25T03:15:55;16.23;;;9.40;;
75230;SDS011;63814;50.118;8.714;2022-11-25T03:18:23;16.33;;;9.20;;
75230;SDS011;63814;50.118;8.714;2022-11-25T03:20:50;14.80;;;9.27;;
75230;SDS011;63814;50.118;8.714;2022-11-25T03:23:17;18.23;;;9.17;;
75230;SDS011;63814;50.118;8.714;2022-11-25T03:25:44;14.93;;;9.30;;
75230;SDS011;63814;50.118;8.714;2022-11-25T03:28:10;17.10;;;8.83;;
75230;SDS011;63814;50.118;8.714;2022-11-25T03:30:37;14.80;;;8.83;;
75230;SDS011;63814;50.118;8.714;2022-11-25T03:33:04;17.97;;;8.70;;
75230;SDS011;63814;50.118;8.714;2022-11-25T03:35:31;14.33;;;8.60;;
75230;SDS011;63814;50.118;8.714;2022-11-25T03:37:58;14.60;;;9.37;;
75230;SDS011;63814;50.118;8.714;2022-11-25T03:40:24;17.20;;;10.03;;
75230;SDS011;63814;50.118;8.714;2022-11-25T03:42:51;13.93;;;8.40;;
75230;SDS011;63814;50.118;8.714;2022-11-25T03:45:18;20.20;;;10.37;;
75230;SDS011;63814;50.118;8.714;2022-11-25T03:47:45;13.90;;;8.63;;
75230;SDS011;63814;50.118;8.714;2022-11-25T03:50:12;19.30;;;9.63;;
75230;SDS011;63814;50.118;8.714;2022-11-25T03:52:41;16.07;;;8.73;;
75230;SDS011;63814;50.118;8.714;2022-11-25T03:55:07;16.87;;;8.47;;
75230;SDS011;63814;50.118;8.714;2022-11-25T03:57:36;13.27;;;9.20;;
75230;SDS011;63814;50.118;8.714;2022-11-25T04:00:03;15.47;;;8.80;;
75230;SDS011;63814;50.118;8.714;2022-11-25T04:02:30;17.57;;;8.03;;
75230;SDS011;63814;50.118;8.714;2022-11-25T04:04:57;15.73;;;7.80;;
75230;SDS011;63814;50.118;8.714;2022-11-25T04:07:23;12.93;;;7.73;;
75230;SDS011;63814;50.118;8.714;2022-11-25T04:09:51;12.40;;;7.87;;
75230;SDS011;63814;50.118;8.714;2022-11-25T04:12:18;16.73;;;7.30;;
75230;SDS011;63814;50.118;8.714;2022-11-25T04:15:02;16.33;;;7.80;;
75230;SDS011;63814;50.118;8.714;2022-11-25T04:17:29;15.93;;;7.70;;
75230;SDS011;63814;50.118;8.714;2022-11-25T04:19:56;13.30;;;7.30;;
75230;SDS011;63814;50.118;8.714;2022-11-25T04:22:22;14.50;;;7.33;;
75230;SDS011;63814;50.118;8.714;2022-11-25T04:24:49;12.10;;;7.53;;
75230;SDS011;63814;50.118;8.714;2022-11-25T04:27:16;14.63;;;7.50;;
75230;SDS011;63814;50.118;8.714;2022-11-25T04:29:43;14.30;;;7.20;;
75230;SDS011;63814;50.118;8.714;2022-11-25T04:32:09;12.53;;;7.40;;
75230;SDS011;63814;50.118;8.714;2022-11-25T04:34:36;13.93;;;7.37;;
75230;SDS011;63814;50.118;8.714;2022-11-25T04:37:02;15.20;;;6.93;;
75230;SDS011;63814;50.118;8.714;2022-11-25T04:39:29;19.50;;;6.97;;
75230;SDS011;63814;50.118;8.714;2022-11-25T04:41:55;17.23;;;6.80;;
75230;SDS011;63814;50.118;8.714;2022-11-25T04:44:37;20.97;;;6.93;;
75230;SDS011;63814;50.118;8.714;2022-11-25T04:47:04;19.40;;;7.20;;
75230;SDS011;63814;50.118;8.714;2022-11-25T04:49:30;14.80;;;6.90;;
75230;SDS011;63814;50.118;8.714;2022-11-25T04:51:57;16.07;;;6.37;;
75230;SDS011;63814;50.118;8.714;2022-11-25T04:54:23;13.97;;;6.43;;
75230;SDS011;63814;50.118;8.714;2022-11-25T04:56:50;10.77;;;6.47;;
75230;SDS011;63814;50.118;8.714;2022-11-25T04:59:16;13.83;;;6.70;;
75230;SDS011;63814;50.118;8.714;2022-11-25T05:02:02;12.63;;;6.83;;
75230;SDS011;63814;50.118;8.714;2022-11-25T05:04:28;13.83;;;7.57;;
75230;SDS011;63814;50.118;8.714;2022-11-25T05:06:55;12.10;;;6.73;;
75230;SDS011;63814;50.118;8.714;2022-11-25T05:09:21;13.47;;;6.63;;
75230;SDS011;63814;50.118;8.714;2022-11-25T05:11:48;15.90;;;6.73;;
75230;SDS011;63814;50.118;8.714;2022-11-25T05:14:14;13.60;;;6.97;;
75230;SDS011;63814;50.118;8.714;2022-11-25T05:16:41;13.40;;;7.47;;
75230;SDS011;63814;50.118;8.714;2022-11-25T05:19:09;12.30;;;6.60;;
75230;SDS011;63814;50.118;8.714;2022-11-25T05:21:35;14.37;;;7.10;;
75230;SDS011;63814;50.118;8.714;2022-11-25T05:24:02;13.03;;;7.67;;
75230;SDS011;63814;50.118;8.714;2022-11-25T05:26:29;10.03;;;6.30;;
75230;SDS011;63814;50.118;8.714;2022-11-25T05:28:55;13.67;;;6.83;;
75230;SDS011;63814;50.118;8.714;2022-11-25T05:31:22;15.47;;;7.27;;
75230;SDS011;63814;50.118;8.714;2022-11-25T05:33:48;13.03;;;6.83;;
75230;SDS011;63814;50.118;8.714;2022-11-25T05:36:16;15.10;;;7.40;;
75230;SDS011;63814;50.118;8.714;2022-11-25T05:38:43;13.17;;;7.20;;
75230;SDS011;63814;50.118;8.714;2022-11-25T05:41:10;13.17;;;6.90;;
75230;SDS011;63814;50.118;8.714;2022-11-25T05:43:37;12.23;;;6.87;;
75230;SDS011;63814;50.118;8.714;2022-11-25T05:46:04;15.03;;;7.00;;
75230;SDS011;63814;50.118;8.714;2022-11-25T05:48:31;10.37;;;6.50;;
75230;SDS011;63814;50.118;8.714;2022-11-25T05:50:58;13.00;;;7.20;;
75230;SDS011;63814;50.118;8.714;2022-11-25T05:53:27;12.23;;;6.97;;
75230;SDS011;63814;50.118;8.714;2022-11-25T05:55:53;11.03;;;7.20;;
75230;SDS011;63814;50.118;8.714;2022-11-25T05:58:21;14.97;;;6.90;;
75230;SDS011;63814;50.118;8.714;2022-11-25T06:00:48;15.50;;;7.03;;
75230;SDS011;63814;50.118;8.714;2022-11-25T06:03:14;14.07;;;7.47;;
75230;SDS011;63814;50.118;8.714;2022-11-25T06:05:41;12.63;;;6.80;;
75230;SDS011;63814;50.118;8.714;2022-11-25T06:08:07;13.97;;;7.03;;
75230;SDS011;63814;50.118;8.714;2022-11-25T06:10:37;15.00;;;7.53;;
75230;SDS011;63814;50.118;8.714;2022-11-25T06:13:04;10.80;;;7.17;;
75230;SDS011;63814;50.118;8.714;2022-11-25T06:15:31;15.13;;;7.57;;
75230;SDS011;63814;50.118;8.714;2022-11-25T06:17:58;21.33;;;7.30;;
75230;SDS011;63814;50.118;8.714;2022-11-25T06:20:24;11.27;;;6.87;;
75230;SDS011;63814;50.118;8.714;2022-11-25T06:22:51;10.83;;;6.23;;
75230;SDS011;63814;50.118;8.714;2022-11-25T06:25:18;14.40;;;7.60;;
75230;SDS011;63814;50.118;8.714;2022-11-25T06:27:46;14.70;;;7.10;;
75230;SDS011;63814;50.118;8.714;2022-11-25T06:30:13;17.27;;;7.13;;
75230;SDS011;63814;50.118;8.714;2022-11-25T06:32:40;20.80;;;7.83;;
75230;SDS011;63814;50.118;8.714;2022-11-25T06:35:07;17.40;;;8.03;;
75230;SDS011;63814;50.118;8.714;2022-11-25T06:37:34;19.33;;;7.30;;
75230;SDS011;63814;50.118;8.714;2022-11-25T06:40:00;15.80;;;7.53;;
75230;SDS011;63814;50.118;8.714;2022-11-25T06:42:27;12.70;;;7.27;;
75230;SDS011;63814;50.118;8.714;2022-11-25T06:44:55;18.93;;;7.73;;
75230;SDS011;63814;50.118;8.714;2022-11-25T06:47:21;19.23;;;7.60;;
75230;SDS011;63814;50.118;8.714;2022-11-25T06:49:48;19.37;;;8.27;;
75230;SDS011;63814;50.118;8.714;2022-11-25T06:52:15;18.70;;;8.47;;
75230;SDS011;63814;50.118;8.714;2022-11-25T06:54:41;18.47;;;8.23;;
75230;SDS011;63814;50.118;8.714;2022-11-25T06:57:08;19.60;;;8.03;;
75230;SDS011;63814;50.118;8.714;2022-11-25T06:59:36;17.40;;;7.87;;
75230;SDS011;63814;50.118;8.714;2022-11-25T07:02:03;15.60;;;7.60;;
75230;SDS011;63814;50.118;8.714;2022-11-25T07:04:30;19.80;;;7.90;;
75230;SDS011;63814;50.118;8.714;2022-11-25T07:06:56;17.20;;;7.63;;
75230;SDS011;63814;50.118;8.714;2022-11-25T07:09:23;14.60;;;7.43;;
75230;SDS011;63814;50.118;8.714;2022-11-25T07:11:49;15.50;;;8.27;;
75230;SDS011;63814;50.118;8.714;2022-11-25T07:14:16;17.57;;;8.03;;
75230;SDS011;63814;50.118;8.714;2022-11-25T07:16:43;12.97;;;7.30;;
75230;SDS011;63814;50.118;8.714;2022-11-25T07:19:12;14.80;;;7.70;;
75230;SDS011;63814;50.118;8.714;2022-11-25T07:21:40;13.87;;;7.47;;
75230;SDS011;63814;50.118;8.714;2022-11-25T07:24:10;16.63;;;8.27;;
75230;SDS011;63814;50.118;8.714;2022-11-25T07:26:38;15.50;;;8.27;;
75230;SDS011;63814;50.118;8.714;2022-11-25T07:29:06;17.87;;;8.47;;
75230;SDS011;63814;50.118;8.714;2022-11-25T07:31:34;16.80;;;8.10;;
75230;SDS011;63814;50.118;8.714;2022-11-25T07:34:02;19.33;;;9.70;;
75230;SDS011;63814;50.118;8.714;2022-11-25T07:36:33;17.87;;;8.57;;
75230;SDS011;63814;50.118;8.714;2022-11-25T07:39:01;14.30;;;8.00;;
75230;SDS011;63814;50.118;8.714;2022-11-25T07:41:29;12.60;;;7.90;;
75230;SDS011;63814;50.118;8.714;2022-11-25T07:43:56;14.63;;;8.27;;
75230;SDS011;63814;50.118;8.714;2022-11-25T07:46:24;15.37;;;8.23;;
75230;SDS011;63814;50.118;8.714;2022-11-25T07:48:53;14.93;;;8.90;;
75230;SDS011;63814;50.118;8.714;2022-11-25T07:51:22;18.63;;;12.00;;
75230;SDS011;63814;50.118;8.714;2022-11-25T07:53:52;17.90;;;8.80;;
75230;SDS011;63814;50.118;8.714;2022-11-25T07:56:19;16.07;;;9.17;;
75230;SDS011;63814;50.118;8.714;2022-11-25T07:58:46;15.17;;;9.33;;
75230;SDS011;63814;50.118;8.714;2022-11-25T08:01:14;16.30;;;8.07;;
75230;SDS011;63814;50.118;8.714;2022-11-25T08:03:42;18.60;;;8.20;;
75230;SDS011;63814;50.118;8.714;2022-11-25T08:06:10;16.70;;;7.40;;
75230;SDS011;63814;50.118;8.714;2022-11-25T08:08:38;18.13;;;9.60;;
75230;SDS011;63814;50.118;8.714;2022-11-25T08:11:08;13.67;;;8.07;;
75230;SDS011;63814;50.118;8.714;2022-11-25T08:13:36;19.43;;;8.70;;
75230;SDS011;63814;50.118;8.714;2022-11-25T08:16:02;21.57;;;9.00;;
75230;SDS011;63814;50.118;8.714;2022-11-25T08:18:30;17.27;;;9.73;;
75230;SDS011;63814;50.118;8.714;2022-11-25T08:20:57;18.77;;;7.93;;
75230;SDS011;63814;50.118;8.714;2022-11-25T08:23:24;16.27;;;7.77;;
75230;SDS011;63814;50.118;8.714;2022-11-25T08:25:51;16.77;;;8.37;;
75230;SDS011;63814;50.118;8.714;2022-11-25T08:28:19;18.00;;;8.50;;
75230;SDS011;63814;50.118;8.714;2022-11-25T08:30:45;16.17;;;8.03;;
75230;SDS011;63814;50.118;8.714;2022-11-25T08:33:12;15.70;;;7.90;;
75230;SDS011;63814;50.118;8.714;2022-11-25T08:35:38;17.40;;;8.40;;
75230;SDS011;63814;50.118;8.714;2022-11-25T08:38:05;22.00;;;10.53;;
75230;SDS011;63814;50.118;8.714;2022-11-25T08:40:33;15.53;;;8.30;;
75230;SDS011;63814;50.118;8.714;2022-11-25T08:43:01;17.03;;;8.93;;
75230;SDS011;63814;50.118;8.714;2022-11-25T08:45:30;17.60;;;8.10;;
75230;SDS011;63814;50.118;8.714;2022-11-25T08:47:56;19.83;;;8.53;;
75230;SDS011;63814;50.118;8.714;2022-11-25T08:50:23;15.70;;;8.10;;
75230;SDS011;63814;50.118;8.714;2022-11-25T08:52:49;15.90;;;8.03;;
75230;SDS011;63814;50.118;8.714;2022-11-25T08:55:16;21.53;;;9.00;;
75230;SDS011;63814;50.118;8.714;2022-11-25T08:57:42;16.90;;;8.00;;
75230;SDS011;63814;50.118;8.714;2022-11-25T09:00:09;12.90;;;7.83;;
75230;SDS011;63814;50.118;8.714;2022-11-25T09:02:38;12.63;;;8.70;;
75230;SDS011;63814;50.118;8.714;2022-11-25T09:05:04;19.87;;;7.80;;
75230;SDS011;63814;50.118;8.714;2022-11-25T09:07:31;14.30;;;7.63;;
75230;SDS011;63814;50.118;8.714;2022-11-25T09:09:58;17.90;;;8.30;;
75230;SDS011;63814;50.118;8.714;2022-11-25T09:12:24;15.07;;;7.87;;
75230;SDS011;63814;50.118;8.714;2022-11-25T09:14:51;17.77;;;8.10;;
75230;SDS011;63814;50.118;8.714;2022-11-25T09:17:17;13.67;;;7.90;;
75230;SDS011;63814;50.118;8.714;2022-11-25T09:19:45;13.10;;;7.63;;
75230;SDS011;63814;50.118;8.714;2022-11-25T09:22:12;16.03;;;7.50;;
75230;SDS011;63814;50.118;8.714;2022-11-25T09:24:38;19.87;;;8.50;;
75230;SDS011;63814;50.118;8.714;2022-11-25T09:27:05;14.13;;;7.37;;
75230;SDS011;63814;50.118;8.714;2022-11-25T09:29:32;13.60;;;8.00;;
75230;SDS011;63814;50.118;8.714;2022-11-25T09:31:58;15.83;;;7.87;;
75230;SDS011;63814;50.118;8.714;2022-11-25T09:34:25;13.67;;;7.17;;
75230;SDS011;63814;50.118;8.714;2022-11-25T09:36:53;13.13;;;7.13;;
75230;SDS011;63814;50.118;8.714;2022-11-25T09:39:19;15.97;;;7.20;;
75230;SDS011;63814;50.118;8.714;2022-11-25T09:41:49;11.53;;;6.83;;
75230;SDS011;63814;50.118;8.714;2022-11-25T09:44:44;14.30;;;7.00;;
75230;SDS011;63814;50.118;8.714;2022-11-25T09:47:42;14.70;;;7.70;;
75230;SDS011;63814;50.118;8.714;2022-11-25T09:50:16;13.40;;;7.03;;
75230;SDS011;63814;50.118;8.714;2022-11-25T09:52:55;12.23;;;6.53;;
75230;SDS011;63814;50.118;8.714;2022-11-25T09:55:29;12.03;;;7.50;;
75230;SDS011;63814;50.118;8.714;2022-11-25T09:58:04;18.07;;;6.80;;
75230;SDS011;63814;50.118;8.714;2022-11-25T10:00:42;16.63;;;7.57;;
75230;SDS011;63814;50.118;8.714;2022-11-25T10:03:14;15.43;;;7.57;;
75230;SDS011;63814;50.118;8.714;2022-11-25T10:05:51;15.80;;;8.03;;
75230;SDS011;63814;50.118;8.714;2022-11-25T10:08:25;19.40;;;8.00;;
75230;SDS011;63814;50.118;8.714;2022-11-25T10:10:56;14.57;;;7.57;;
75230;SDS011;63814;50.118;8.714;2022-11-25T10:13:28;12.40;;;7.03;;
75230;SDS011;63814;50.118;8.714;2022-11-25T10:16:02;15.63;;;6.90;;
75230;SDS011;63814;50.118;8.714;2022-11-25T10:18:33;14.27;;;7.90;;
75230;SDS011;63814;50.118;8.714;2022-11-25T10:21:04;14.40;;;6.83;;
75230;SDS011;63814;50.118;8.714;2022-11-25T10:23:32;14.17;;;7.43;;
75230;SDS011;63814;50.118;8.714;2022-11-25T10:26:01;12.73;;;6.87;;
75230;SDS011;63814;50.118;8.714;2022-11-25T10:28:35;12.47;;;6.83;;
75230;SDS011;63814;50.118;8.714;2022-11-25T10:31:04;13.80;;;7.13;;
75230;SDS011;63814;50.118;8.714;2022-11-25T10:33:38;15.17;;;7.20;;
75230;SDS011;63814;50.118;8.714;2022-11-25T10:36:11;15.00;;;7.60;;
75230;SDS011;63814;50.118;8.714;2022-11-25T10:38:46;14.17;;;7.20;;
75230;SDS011;63814;50.118;8.714;2022-11-25T10:41:21;12.17;;;7.70;;
75230;SDS011;63814;50.118;8.714;2022-11-25T10:43:49;11.30;;;7.90;;
75230;SDS011;63814;50.118;8.714;2022-11-25T10:46:19;11.03;;;7.07;;
75230;SDS011;63814;50.118;8.714;2022-11-25T10:48:53;12.47;;;6.67;;
75230;SDS011;63814;50.118;8.714;2022-11-25T10:51:35;12.43;;;6.77;;
75230;SDS011;63814;50.118;8.714;2022-11-25T10:54:11;10.37;;;6.70;;
75230;SDS011;63814;50.118;8.714;2022-11-25T10:56:44;12.83;;;6.87;;
75230;SDS011;63814;50.118;8.714;2022-11-25T10:59:20;10.23;;;6.13;;
75230;SDS011;63814;50.118;8.714;2022-11-25T11:01:49;11.23;;;6.80;;
75230;SDS011;63814;50.118;8.714;2022-11-25T11:04:17;10.90;;;5.73;;
75230;SDS011;63814;50.118;8.714;2022-11-25T11:06:45;12.23;;;7.03;;
75230;SDS011;63814;50.118;8.714;2022-11-25T11:12:12;11.93;;;6.77;;
75230;SDS011;63814;50.118;8.714;2022-11-25T11:14:43;11.67;;;6.60;;
75230;SDS011;63814;50.118;8.714;2022-11-25T11:17:20;11.27;;;7.03;;
75230;SDS011;63814;50.118;8.714;2022-11-25T11:20:01;14.30;;;6.87;;
75230;SDS011;63814;50.118;8.714;2022-11-25T11:22:35;13.27;;;7.13;;
75230;SDS011;63814;50.118;8.714;2022-11-25T11:25:18;10.03;;;6.53;;
75230;SDS011;63814;50.118;8.714;2022-11-25T11:27:52;14.00;;;7.17;;
75230;SDS011;63814;50.118;8.714;2022-11-25T11:30:20;9.97;;;6.70;;
75230;SDS011;63814;50.118;8.714;2022-11-25T11:32:54;9.93;;;6.23;;
75230;SDS011;63814;50.118;8.714;2022-11-25T11:35:24;9.40;;;6.47;;
75230;SDS011;63814;50.118;8.714;2022-11-25T11:38:00;15.50;;;6.67;;
75230;SDS011;63814;50.118;8.714;2022-11-25T11:40:36;12.73;;;6.53;;
75230;SDS011;63814;50.118;8.714;2022-11-25T11:43:13;13.57;;;6.80;;
75230;SDS011;63814;50.118;8.714;2022-11-25T11:45:56;12.93;;;7.17;;
75230;SDS011;63814;50.118;8.714;2022-11-25T11:48:34;13.60;;;7.13;;
75230;SDS011;63814;50.118;8.714;2022-11-25T11:51:07;15.10;;;6.90;;
75230;SDS011;63814;50.118;8.714;2022-11-25T11:53:41;10.80;;;6.57;;
75230;SDS011;63814;50.118;8.714;2022-11-25T11:56:19;12.40;;;7.07;;
75230;SDS011;63814;50.118;8.714;2022-11-25T11:58:56;12.93;;;7.00;;
75230;SDS011;63814;50.118;8.714;2022-11-25T12:01:36;12.03;;;7.30;;
75230;SDS011;63814;50.118;8.714;2022-11-25T12:04:20;12.50;;;7.03;;
75230;SDS011;63814;50.118;8.714;2022-11-25T12:06:55;12.00;;;6.80;;
75230;SDS011;63814;50.118;8.714;2022-11-25T12:09:28;12.73;;;7.77;;
75230;SDS011;63814;50.118;8.714;2022-11-25T12:12:01;10.73;;;6.70;;
75230;SDS011;63814;50.118;8.714;2022-11-25T12:14:32;11.07;;;6.83;;
75230;SDS011;63814;50.118;8.714;2022-11-25T12:17:06;14.93;;;6.53;;
75230;SDS011;63814;50.118;8.714;2022-11-25T12:19:39;11.73;;;6.30;;
75230;SDS011;63814;50.118;8.714;2022-11-25T12:22:16;13.57;;;6.77;;
75230;SDS011;63814;50.118;8.714;2022-11-25T12:24:47;8.20;;;6.03;;
75230;SDS011;63814;50.118;8.714;2022-11-25T12:27:21;12.03;;;6.20;;
75230;SDS011;63814;50.118;8.714;2022-11-25T12:29:51;8.60;;;6.10;;
75230;SDS011;63814;50.118;8.714;2022-11-25T12:32:29;11.37;;;6.03;;
75230;SDS011;63814;50.118;8.714;2022-11-25T12:35:22;9.57;;;5.30;;
75230;SDS011;63814;50.118;8.714;2022-11-25T12:37:57;11.63;;;5.60;;
75230;SDS011;63814;50.118;8.714;2022-11-25T12:40:32;9.50;;;5.50;;
75230;SDS011;63814;50.118;8.714;2022-11-25T12:43:21;11.70;;;5.80;;
75230;SDS011;63814;50.118;8.714;2022-11-25T12:45:57;11.83;;;5.27;;
75230;SDS011;63814;50.118;8.714;2022-11-25T12:48:30;9.73;;;5.23;;
75230;SDS011;63814;50.118;8.714;2022-11-25T12:50:59;11.37;;;5.63;;
75230;SDS011;63814;50.118;8.714;2022-11-25T12:53:32;10.10;;;5.70;;
75230;SDS011;63814;50.118;8.714;2022-11-25T12:56:04;8.30;;;5.43;;
75230;SDS011;63814;50.118;8.714;2022-11-25T12:58:46;9.23;;;5.30;;
75230;SDS011;63814;50.118;8.714;2022-11-25T13:01:29;10.10;;;5.50;;
75230;SDS011;63814;50.118;8.714;2022-11-25T13:07:14;12.77;;;5.90;;
75230;SDS011;63814;50.118;8.714;2022-11-25T13:10:08;12.63;;;5.77;;
75230;SDS011;63814;50.118;8.714;2022-11-25T13:12:52;10.77;;;6.00;;
75230;SDS011;63814;50.118;8.714;2022-11-25T13:15:30;11.27;;;5.30;;
75230;SDS011;63814;50.118;8.714;2022-11-25T13:18:02;10.03;;;5.47;;
75230;SDS011;63814;50.118;8.714;2022-11-25T13:20:42;10.47;;;5.33;;
75230;SDS011;63814;50.118;8.714;2022-11-25T13:23:20;10.80;;;5.63;;
75230;SDS011;63814;50.118;8.714;2022-11-25T13:25:52;9.77;;;5.17;;
75230;SDS011;63814;50.118;8.714;2022-11-25T13:28:39;11.87;;;6.07;;
75230;SDS011;63814;50.118;8.714;2022-11-25T13:31:22;9.07;;;5.87;;
75230;SDS011;63814;50.118;8.714;2022-11-25T13:33:55;11.73;;;6.07;;
75230;SDS011;63814;50.118;8.714;2022-11-25T13:36:44;11.13;;;6.57;;
75230;SDS011;63814;50.118;8.714;2022-11-25T13:39:13;12.20;;;6.77;;
75230;SDS011;63814;50.118;8.714;2022-11-25T13:41:44;9.17;;;5.83;;
75230;SDS011;63814;50.118;8.714;2022-11-25T13:44:20;10.97;;;5.90;;
75230;SDS011;63814;50.118;8.714;2022-11-25T13:46:51;10.57;;;5.90;;
75230;SDS011;63814;50.118;8.714;2022-11-25T13:49:26;9.90;;;6.10;;
75230;SDS011;63814;50.118;8.714;2022-11-25T13:52:15;12.33;;;6.27;;
75230;SDS011;63814;50.118;8.714;2022-11-25T13:54:57;11.07;;;6.00;;
75230;SDS011;63814;50.118;8.714;2022-11-25T13:57:26;11.33;;;5.93;;
75230;SDS011;63814;50.118;8.714;2022-11-25T13:59:56;11.87;;;6.23;;
75230;SDS011;63814;50.118;8.714;2022-11-25T14:02:36;10.43;;;5.80;;
75230;SDS011;63814;50.118;8.714;2022-11-25T14:11:27;11.83;;;6.30;;
75230;SDS011;63814;50.118;8.714;2022-11-25T14:14:06;13.57;;;6.23;;
75230;SDS011;63814;50.118;8.714;2022-11-25T14:16:52;12.23;;;6.20;;
75230;SDS011;63814;50.118;8.714;2022-11-25T14:19:45;13.30;;;7.07;;
75230;SDS011;63814;50.118;8.714;2022-11-25T14:22:32;12.53;;;6.77;;
75230;SDS011;63814;50.118;8.714;2022-11-25T14:25:12;9.27;;;5.87;;
75230;SDS011;63814;50.118;8.714;2022-11-25T14:27:45;11.43;;;6.83;;
75230;SDS011;63814;50.118;8.714;2022-11-25T14:30:14;14.80;;;6.37;;
75230;SDS011;63814;50.118;8.714;2022-11-25T14:32:42;12.77;;;6.37;;
75230;SDS011;63814;50.118;8.714;2022-11-25T14:35:15;13.43;;;6.20;;
75230;SDS011;63814;50.118;8.714;2022-11-25T14:37:44;12.77;;;5.90;;
75230;SDS011;63814;50.118;8.714;2022-11-25T14:40:17;12.60;;;6.17;;
75230;SDS011;63814;50.118;8.714;2022-11-25T14:42:47;9.70;;;6.57;;
75230;SDS011;63814;50.118;8.714;2022-11-25T14:45:21;11.20;;;6.10;;
75230;SDS011;63814;50.118;8.714;2022-11-25T14:47:50;10.73;;;5.83;;
75230;SDS011;63814;50.118;8.714;2022-11-25T14:50:18;13.67;;;6.03;;
75230;SDS011;63814;50.118;8.714;2022-11-25T14:52:45;15.10;;;6.00;;
75230;SDS011;63814;50.118;8.714;2022-11-25T14:55:13;9.30;;;5.50;;
75230;SDS011;63814;50.118;8.714;2022-11-25T14:57:49;11.90;;;5.53;;
75230;SDS011;63814;50.118;8.714;2022-11-25T15:00:17;11.77;;;5.43;;
75230;SDS011;63814;50.118;8.714;2022-11-25T15:02:51;10.10;;;5.93;;